sensor_id;sensor_type;location;lat;lon;timestamp;temperature;humidity
52543;DHT22;38449;52.696;6.186;2023-06-26T00:01:30;24.30;99.90
52543;DHT22;38449;52.696;6.186;2023-06-26T00:04:00;24.30;99.90
52543;DHT22;38449;52.696;6.186;2023-06-26T00:06:39;24.30;99.90
52543;DHT22;38449;52.696;6.186;2023-06-26T00:09:05;24.20;99.90
52543;DHT22;38449;52.696;6.186;2023-06-26T00:11:31;24.10;99.90
52543;DHT22;38449;52.696;6.186;2023-06-26T00:14:02;24.10;99.90
52543;DHT22;38449;52.696;6.186;2023-06-26T00:16:28;24.00;99.90
52543;DHT22;38449;52.696;6.186;2023-06-26T00:18:54;24.00;99.90
52543;DHT22;38449;52.696;6.186;2023-06-26T00:21:20;24.00;99.90
52543;DHT22;38449;52.696;6.186;2023-06-26T00:23:46;24.00;99.90
52543;DHT22;38449;52.696;6.186;2023-06-26T00:26:13;23.80;99.90
52543;DHT22;38449;52.696;6.186;2023-06-26T00:28:39;23.80;99.90
52543;DHT22;38449;52.696;6.186;2023-06-26T00:31:05;23.80;99.90
52543;DHT22;38449;52.696;6.186;2023-06-26T00:33:31;23.70;99.90
52543;DHT22;38449;52.696;6.186;2023-06-26T00:35:57;23.70;99.90
52543;DHT22;38449;52.696;6.186;2023-06-26T00:38:24;23.70;99.90
52543;DHT22;38449;52.696;6.186;2023-06-26T00:40:50;23.60;99.90
52543;DHT22;38449;52.696;6.186;2023-06-26T00:43:16;23.60;99.90
52543;DHT22;38449;52.696;6.186;2023-06-26T00:45:43;23.60;99.90
52543;DHT22;38449;52.696;6.186;2023-06-26T00:48:10;23.50;99.90
52543;DHT22;38449;52.696;6.186;2023-06-26T00:50:38;23.50;99.90
52543;DHT22;38449;52.696;6.186;2023-06-26T00:53:04;23.60;99.90
52543;DHT22;38449;52.696;6.186;2023-06-26T00:55:30;23.40;99.90
52543;DHT22;38449;52.696;6.186;2023-06-26T00:57:57;23.40;99.90
52543;DHT22;38449;52.696;6.186;2023-06-26T01:00:23;23.40;99.90
52543;DHT22;38449;52.696;6.186;2023-06-26T01:02:49;23.40;99.90
52543;DHT22;38449;52.696;6.186;2023-06-26T01:05:15;23.40;99.90
52543;DHT22;38449;52.696;6.186;2023-06-26T01:07:48;23.40;99.90
52543;DHT22;38449;52.696;6.186;2023-06-26T01:10:14;23.30;99.90
52543;DHT22;38449;52.696;6.186;2023-06-26T01:12:41;23.30;99.90
52543;DHT22;38449;52.696;6.186;2023-06-26T01:15:08;23.30;99.90
52543;DHT22;38449;52.696;6.186;2023-06-26T01:17:42;23.30;99.90
52543;DHT22;38449;52.696;6.186;2023-06-26T01:20:11;23.20;99.90
52543;DHT22;38449;52.696;6.186;2023-06-26T01:26:11;23.20;99.90
52543;DHT22;38449;52.696;6.186;2023-06-26T01:28:41;23.20;99.90
52543;DHT22;38449;52.696;6.186;2023-06-26T01:31:08;23.20;99.90
52543;DHT22;38449;52.696;6.186;2023-06-26T01:33:36;23.20;99.90
52543;DHT22;38449;52.696;6.186;2023-06-26T01:36:03;23.20;99.90
52543;DHT22;38449;52.696;6.186;2023-06-26T01:38:29;23.10;99.90
52543;DHT22;38449;52.696;6.186;2023-06-26T01:40:56;23.20;99.90
52543;DHT22;38449;52.696;6.186;2023-06-26T01:49:31;23.10;99.90
52543;DHT22;38449;52.696;6.186;2023-06-26T01:52:21;23.10;99.90
52543;DHT22;38449;52.696;6.186;2023-06-26T01:55:21;23.20;99.90
52543;DHT22;38449;52.696;6.186;2023-06-26T01:57:50;23.10;99.90
52543;DHT22;38449;52.696;6.186;2023-06-26T02:00:21;23.10;99.90
52543;DHT22;38449;52.696;6.186;2023-06-26T02:02:49;23.10;99.90
52543;DHT22;38449;52.696;6.186;2023-06-26T02:05:15;23.00;99.90
52543;DHT22;38449;52.696;6.186;2023-06-26T02:07:41;23.00;99.90
52543;DHT22;38449;52.696;6.186;2023-06-26T02:10:08;23.10;99.90
52543;DHT22;38449;52.696;6.186;2023-06-26T02:12:36;23.10;99.90
52543;DHT22;38449;52.696;6.186;2023-06-26T02:15:03;23.00;99.90
52543;DHT22;38449;52.696;6.186;2023-06-26T02:17:30;23.00;99.90
52543;DHT22;38449;52.696;6.186;2023-06-26T02:19:56;23.00;99.90
52543;DHT22;38449;52.696;6.186;2023-06-26T02:22:23;23.10;99.90
52543;DHT22;38449;52.696;6.186;2023-06-26T02:24:49;23.10;99.90
52543;DHT22;38449;52.696;6.186;2023-06-26T02:27:15;23.00;99.90
52543;DHT22;38449;52.696;6.186;2023-06-26T02:29:42;23.00;99.90
52543;DHT22;38449;52.696;6.186;2023-06-26T02:32:08;22.90;99.90
52543;DHT22;38449;52.696;6.186;2023-06-26T02:34:35;23.00;99.90
52543;DHT22;38449;52.696;6.186;2023-06-26T02:37:01;22.90;99.90
52543;DHT22;38449;52.696;6.186;2023-06-26T02:39:27;22.90;99.90
52543;DHT22;38449;52.696;6.186;2023-06-26T02:41:54;22.90;99.90
52543;DHT22;38449;52.696;6.186;2023-06-26T02:44:20;22.90;99.90
52543;DHT22;38449;52.696;6.186;2023-06-26T02:46:47;22.80;99.90
52543;DHT22;38449;52.696;6.186;2023-06-26T02:49:13;22.80;99.90
52543;DHT22;38449;52.696;6.186;2023-06-26T02:51:39;22.80;99.90
52543;DHT22;38449;52.696;6.186;2023-06-26T02:54:06;22.70;99.90
52543;DHT22;38449;52.696;6.186;2023-06-26T02:56:32;22.70;99.90
52543;DHT22;38449;52.696;6.186;2023-06-26T02:58:58;22.70;99.90
52543;DHT22;38449;52.696;6.186;2023-06-26T03:01:24;22.70;99.90
52543;DHT22;38449;52.696;6.186;2023-06-26T03:03:51;22.60;99.90
52543;DHT22;38449;52.696;6.186;2023-06-26T03:06:17;22.60;99.90
52543;DHT22;38449;52.696;6.186;2023-06-26T03:08:43;22.50;99.90
52543;DHT22;38449;52.696;6.186;2023-06-26T03:11:09;22.50;99.90
52543;DHT22;38449;52.696;6.186;2023-06-26T03:13:36;22.50;99.90
52543;DHT22;38449;52.696;6.186;2023-06-26T03:16:03;22.40;99.90
52543;DHT22;38449;52.696;6.186;2023-06-26T03:18:30;22.40;99.90
52543;DHT22;38449;52.696;6.186;2023-06-26T03:20:56;22.40;99.90
52543;DHT22;38449;52.696;6.186;2023-06-26T03:23:23;22.50;99.90
52543;DHT22;38449;52.696;6.186;2023-06-26T03:25:50;22.50;99.90
52543;DHT22;38449;52.696;6.186;2023-06-26T03:28:17;22.50;99.90
52543;DHT22;38449;52.696;6.186;2023-06-26T03:30:43;22.50;99.90
52543;DHT22;38449;52.696;6.186;2023-06-26T03:33:09;22.50;99.90
52543;DHT22;38449;52.696;6.186;2023-06-26T03:35:36;22.60;99.90
52543;DHT22;38449;52.696;6.186;2023-06-26T03:38:04;22.60;99.90
52543;DHT22;38449;52.696;6.186;2023-06-26T03:40:37;22.60;99.90
52543;DHT22;38449;52.696;6.186;2023-06-26T03:43:03;22.50;99.90
52543;DHT22;38449;52.696;6.186;2023-06-26T03:45:30;22.60;99.90
52543;DHT22;38449;52.696;6.186;2023-06-26T03:47:56;22.60;99.90
52543;DHT22;38449;52.696;6.186;2023-06-26T03:50:22;22.60;99.90
52543;DHT22;38449;52.696;6.186;2023-06-26T03:52:48;22.60;99.90
52543;DHT22;38449;52.696;6.186;2023-06-26T03:55:17;22.60;99.90
52543;DHT22;38449;52.696;6.186;2023-06-26T03:57:43;22.60;99.90
52543;DHT22;38449;52.696;6.186;2023-06-26T04:00:10;22.50;99.90
52543;DHT22;38449;52.696;6.186;2023-06-26T04:02:38;22.50;99.90
52543;DHT22;38449;52.696;6.186;2023-06-26T04:05:05;22.50;99.90
52543;DHT22;38449;52.696;6.186;2023-06-26T04:07:31;22.50;99.90
52543;DHT22;38449;52.696;6.186;2023-06-26T04:09:58;22.40;99.90
52543;DHT22;38449;52.696;6.186;2023-06-26T04:12:24;22.40;99.90
52543;DHT22;38449;52.696;6.186;2023-06-26T04:14:50;22.40;99.90
52543;DHT22;38449;52.696;6.186;2023-06-26T04:17:17;22.40;99.90
52543;DHT22;38449;52.696;6.186;2023-06-26T04:19:43;22.30;99.90
52543;DHT22;38449;52.696;6.186;2023-06-26T04:22:09;22.20;99.90
52543;DHT22;38449;52.696;6.186;2023-06-26T04:24:35;22.20;99.90
52543;DHT22;38449;52.696;6.186;2023-06-26T04:27:02;22.10;99.90
52543;DHT22;38449;52.696;6.186;2023-06-26T04:29:29;22.00;99.90
52543;DHT22;38449;52.696;6.186;2023-06-26T04:31:55;22.10;99.90
52543;DHT22;38449;52.696;6.186;2023-06-26T04:34:25;22.00;99.90
52543;DHT22;38449;52.696;6.186;2023-06-26T04:36:51;22.00;99.90
52543;DHT22;38449;52.696;6.186;2023-06-26T04:39:17;22.10;99.90
52543;DHT22;38449;52.696;6.186;2023-06-26T04:41:45;22.00;99.90
52543;DHT22;38449;52.696;6.186;2023-06-26T04:44:12;22.00;99.90
52543;DHT22;38449;52.696;6.186;2023-06-26T04:46:38;22.20;99.90
52543;DHT22;38449;52.696;6.186;2023-06-26T04:49:08;22.00;99.90
52543;DHT22;38449;52.696;6.186;2023-06-26T04:51:35;22.00;99.90
52543;DHT22;38449;52.696;6.186;2023-06-26T04:54:10;22.00;99.90
52543;DHT22;38449;52.696;6.186;2023-06-26T04:56:37;21.90;99.90
52543;DHT22;38449;52.696;6.186;2023-06-26T04:59:03;21.80;99.90
52543;DHT22;38449;52.696;6.186;2023-06-26T05:01:29;21.80;99.90
52543;DHT22;38449;52.696;6.186;2023-06-26T05:03:56;21.80;99.90
52543;DHT22;38449;52.696;6.186;2023-06-26T05:06:22;21.80;99.90
52543;DHT22;38449;52.696;6.186;2023-06-26T05:08:49;21.70;99.90
52543;DHT22;38449;52.696;6.186;2023-06-26T05:11:15;21.60;99.90
52543;DHT22;38449;52.696;6.186;2023-06-26T05:13:42;21.70;99.90
52543;DHT22;38449;52.696;6.186;2023-06-26T05:16:08;21.70;99.90
52543;DHT22;38449;52.696;6.186;2023-06-26T05:18:35;21.80;99.90
52543;DHT22;38449;52.696;6.186;2023-06-26T05:21:02;22.10;99.90
52543;DHT22;38449;52.696;6.186;2023-06-26T05:23:31;22.70;99.90
52543;DHT22;38449;52.696;6.186;2023-06-26T05:25:58;23.00;99.90
52543;DHT22;38449;52.696;6.186;2023-06-26T05:28:25;22.90;99.90
52543;DHT22;38449;52.696;6.186;2023-06-26T05:30:56;22.70;99.90
52543;DHT22;38449;52.696;6.186;2023-06-26T05:33:24;22.70;99.90
52543;DHT22;38449;52.696;6.186;2023-06-26T05:35:54;22.70;99.90
52543;DHT22;38449;52.696;6.186;2023-06-26T05:38:21;22.90;99.90
52543;DHT22;38449;52.696;6.186;2023-06-26T05:40:47;23.20;99.90
52543;DHT22;38449;52.696;6.186;2023-06-26T05:43:14;23.40;99.90
52543;DHT22;38449;52.696;6.186;2023-06-26T05:45:41;23.70;99.90
52543;DHT22;38449;52.696;6.186;2023-06-26T05:48:08;24.20;99.90
52543;DHT22;38449;52.696;6.186;2023-06-26T05:50:34;23.90;99.90
52543;DHT22;38449;52.696;6.186;2023-06-26T05:53:02;23.80;99.90
52543;DHT22;38449;52.696;6.186;2023-06-26T05:55:29;24.10;99.90
52543;DHT22;38449;52.696;6.186;2023-06-26T05:57:57;24.40;99.90
52543;DHT22;38449;52.696;6.186;2023-06-26T06:00:24;24.50;99.90
52543;DHT22;38449;52.696;6.186;2023-06-26T06:02:52;24.60;99.90
52543;DHT22;38449;52.696;6.186;2023-06-26T06:05:21;24.70;99.90
52543;DHT22;38449;52.696;6.186;2023-06-26T06:07:48;25.40;99.90
52543;DHT22;38449;52.696;6.186;2023-06-26T06:10:14;26.00;99.90
52543;DHT22;38449;52.696;6.186;2023-06-26T06:12:41;25.80;99.90
52543;DHT22;38449;52.696;6.186;2023-06-26T06:15:07;25.40;99.90
52543;DHT22;38449;52.696;6.186;2023-06-26T06:17:34;25.00;99.90
52543;DHT22;38449;52.696;6.186;2023-06-26T06:20:00;24.40;99.90
52543;DHT22;38449;52.696;6.186;2023-06-26T06:22:26;23.80;99.90
52543;DHT22;38449;52.696;6.186;2023-06-26T06:24:53;23.50;99.90
52543;DHT22;38449;52.696;6.186;2023-06-26T06:27:19;23.20;99.90
52543;DHT22;38449;52.696;6.186;2023-06-26T06:29:45;23.70;99.90
52543;DHT22;38449;52.696;6.186;2023-06-26T06:32:11;24.20;99.90
52543;DHT22;38449;52.696;6.186;2023-06-26T06:34:38;24.90;99.90
52543;DHT22;38449;52.696;6.186;2023-06-26T06:37:04;25.10;99.90
52543;DHT22;38449;52.696;6.186;2023-06-26T06:39:30;25.10;99.90
52543;DHT22;38449;52.696;6.186;2023-06-26T06:41:56;24.90;99.90
52543;DHT22;38449;52.696;6.186;2023-06-26T06:44:23;25.00;99.90
52543;DHT22;38449;52.696;6.186;2023-06-26T06:46:49;25.40;99.90
52543;DHT22;38449;52.696;6.186;2023-06-26T06:49:15;25.60;99.90
52543;DHT22;38449;52.696;6.186;2023-06-26T06:51:48;25.40;99.90
52543;DHT22;38449;52.696;6.186;2023-06-26T06:54:18;25.40;99.90
52543;DHT22;38449;52.696;6.186;2023-06-26T06:56:45;25.70;99.90
52543;DHT22;38449;52.696;6.186;2023-06-26T06:59:12;26.60;99.90
52543;DHT22;38449;52.696;6.186;2023-06-26T07:01:39;26.50;99.60
52543;DHT22;38449;52.696;6.186;2023-06-26T07:04:05;25.90;99.50
52543;DHT22;38449;52.696;6.186;2023-06-26T07:06:32;25.40;99.90
52543;DHT22;38449;52.696;6.186;2023-06-26T07:08:58;25.40;99.90
52543;DHT22;38449;52.696;6.186;2023-06-26T07:11:24;25.40;99.90
52543;DHT22;38449;52.696;6.186;2023-06-26T07:13:50;25.30;99.90
52543;DHT22;38449;52.696;6.186;2023-06-26T07:16:17;25.10;99.90
52543;DHT22;38449;52.696;6.186;2023-06-26T07:18:44;25.30;99.90
52543;DHT22;38449;52.696;6.186;2023-06-26T07:21:10;25.10;99.90
52543;DHT22;38449;52.696;6.186;2023-06-26T07:23:36;25.10;99.90
52543;DHT22;38449;52.696;6.186;2023-06-26T07:26:03;25.00;99.90
52543;DHT22;38449;52.696;6.186;2023-06-26T07:28:29;25.20;99.90
52543;DHT22;38449;52.696;6.186;2023-06-26T07:30:55;24.80;99.90
52543;DHT22;38449;52.696;6.186;2023-06-26T07:33:21;24.80;99.90
52543;DHT22;38449;52.696;6.186;2023-06-26T07:35:48;24.50;99.90
52543;DHT22;38449;52.696;6.186;2023-06-26T07:38:14;24.60;99.90
52543;DHT22;38449;52.696;6.186;2023-06-26T07:40:40;24.30;99.90
52543;DHT22;38449;52.696;6.186;2023-06-26T07:43:06;24.60;99.90
52543;DHT22;38449;52.696;6.186;2023-06-26T07:45:33;24.80;99.90
52543;DHT22;38449;52.696;6.186;2023-06-26T07:47:59;25.10;99.90
52543;DHT22;38449;52.696;6.186;2023-06-26T07:50:25;25.00;99.90
52543;DHT22;38449;52.696;6.186;2023-06-26T07:52:52;25.20;99.90
52543;DHT22;38449;52.696;6.186;2023-06-26T07:55:19;25.00;99.90
52543;DHT22;38449;52.696;6.186;2023-06-26T07:57:45;24.50;99.90
52543;DHT22;38449;52.696;6.186;2023-06-26T08:00:12;24.20;99.90
52543;DHT22;38449;52.696;6.186;2023-06-26T08:02:38;24.20;99.90
52543;DHT22;38449;52.696;6.186;2023-06-26T08:05:05;24.20;99.90
52543;DHT22;38449;52.696;6.186;2023-06-26T08:07:31;24.30;99.90
52543;DHT22;38449;52.696;6.186;2023-06-26T08:09:57;24.30;99.90
52543;DHT22;38449;52.696;6.186;2023-06-26T08:12:23;24.20;99.90
52543;DHT22;38449;52.696;6.186;2023-06-26T08:14:50;24.30;99.90
52543;DHT22;38449;52.696;6.186;2023-06-26T08:17:16;24.30;99.90
52543;DHT22;38449;52.696;6.186;2023-06-26T08:19:42;24.50;99.90
52543;DHT22;38449;52.696;6.186;2023-06-26T08:22:09;24.50;99.90
52543;DHT22;38449;52.696;6.186;2023-06-26T08:24:35;24.30;99.90
52543;DHT22;38449;52.696;6.186;2023-06-26T08:27:03;24.10;99.90
52543;DHT22;38449;52.696;6.186;2023-06-26T08:29:32;23.90;99.90
52543;DHT22;38449;52.696;6.186;2023-06-26T08:31:58;23.80;99.90
52543;DHT22;38449;52.696;6.186;2023-06-26T08:34:25;24.00;99.90
52543;DHT22;38449;52.696;6.186;2023-06-26T08:36:51;24.10;99.90
52543;DHT22;38449;52.696;6.186;2023-06-26T08:39:17;24.00;99.90
52543;DHT22;38449;52.696;6.186;2023-06-26T08:41:45;23.80;99.90
52543;DHT22;38449;52.696;6.186;2023-06-26T08:44:14;23.60;99.90
52543;DHT22;38449;52.696;6.186;2023-06-26T08:46:40;23.40;99.90
52543;DHT22;38449;52.696;6.186;2023-06-26T08:49:18;23.40;99.90
52543;DHT22;38449;52.696;6.186;2023-06-26T08:51:52;23.30;99.90
52543;DHT22;38449;52.696;6.186;2023-06-26T08:54:22;23.50;99.90
52543;DHT22;38449;52.696;6.186;2023-06-26T08:56:53;23.60;99.90
52543;DHT22;38449;52.696;6.186;2023-06-26T08:59:21;23.40;99.90
52543;DHT22;38449;52.696;6.186;2023-06-26T09:01:47;23.30;99.90
52543;DHT22;38449;52.696;6.186;2023-06-26T09:04:14;23.30;99.90
52543;DHT22;38449;52.696;6.186;2023-06-26T09:06:40;23.40;99.90
52543;DHT22;38449;52.696;6.186;2023-06-26T09:09:07;23.40;99.90
52543;DHT22;38449;52.696;6.186;2023-06-26T09:11:33;23.40;99.90
52543;DHT22;38449;52.696;6.186;2023-06-26T09:14:00;23.50;99.90
52543;DHT22;38449;52.696;6.186;2023-06-26T09:16:26;23.70;99.90
52543;DHT22;38449;52.696;6.186;2023-06-26T09:18:53;23.80;99.90
52543;DHT22;38449;52.696;6.186;2023-06-26T09:21:21;23.80;99.90
52543;DHT22;38449;52.696;6.186;2023-06-26T09:23:49;23.70;99.90
52543;DHT22;38449;52.696;6.186;2023-06-26T09:26:16;23.70;99.90
52543;DHT22;38449;52.696;6.186;2023-06-26T09:28:42;23.80;99.90
52543;DHT22;38449;52.696;6.186;2023-06-26T09:31:09;23.50;99.90
52543;DHT22;38449;52.696;6.186;2023-06-26T09:33:37;23.50;99.90
52543;DHT22;38449;52.696;6.186;2023-06-26T09:36:20;23.30;99.90
52543;DHT22;38449;52.696;6.186;2023-06-26T09:38:50;23.60;99.90
52543;DHT22;38449;52.696;6.186;2023-06-26T09:41:17;23.60;99.90
52543;DHT22;38449;52.696;6.186;2023-06-26T09:43:50;23.80;99.90
52543;DHT22;38449;52.696;6.186;2023-06-26T09:46:24;23.90;99.90
52543;DHT22;38449;52.696;6.186;2023-06-26T09:49:04;23.50;99.90
52543;DHT22;38449;52.696;6.186;2023-06-26T09:51:34;23.50;99.90
52543;DHT22;38449;52.696;6.186;2023-06-26T09:54:01;23.70;99.90
52543;DHT22;38449;52.696;6.186;2023-06-26T09:56:29;23.80;99.90
52543;DHT22;38449;52.696;6.186;2023-06-26T09:58:56;23.90;99.90
52543;DHT22;38449;52.696;6.186;2023-06-26T10:01:24;24.00;99.90
52543;DHT22;38449;52.696;6.186;2023-06-26T10:03:51;23.90;99.90
52543;DHT22;38449;52.696;6.186;2023-06-26T10:06:22;24.20;99.80
52543;DHT22;38449;52.696;6.186;2023-06-26T10:08:51;24.20;99.10
52543;DHT22;38449;52.696;6.186;2023-06-26T10:11:21;24.40;99.40
52543;DHT22;38449;52.696;6.186;2023-06-26T10:13:51;24.30;99.90
52543;DHT22;38449;52.696;6.186;2023-06-26T10:16:28;23.80;99.90
52543;DHT22;38449;52.696;6.186;2023-06-26T10:19:03;23.70;99.60
52543;DHT22;38449;52.696;6.186;2023-06-26T10:21:31;23.70;99.40
52543;DHT22;38449;52.696;6.186;2023-06-26T10:23:59;23.70;99.20
52543;DHT22;38449;52.696;6.186;2023-06-26T10:26:27;23.80;99.10
52543;DHT22;38449;52.696;6.186;2023-06-26T10:28:55;23.90;99.50
52543;DHT22;38449;52.696;6.186;2023-06-26T10:31:26;23.80;99.10
52543;DHT22;38449;52.696;6.186;2023-06-26T10:33:54;24.00;99.10
52543;DHT22;38449;52.696;6.186;2023-06-26T10:36:29;24.10;99.30
52543;DHT22;38449;52.696;6.186;2023-06-26T10:38:57;23.90;99.30
52543;DHT22;38449;52.696;6.186;2023-06-26T10:41:24;23.90;98.90
52543;DHT22;38449;52.696;6.186;2023-06-26T10:44:12;23.80;99.30
52543;DHT22;38449;52.696;6.186;2023-06-26T10:46:55;23.90;99.30
52543;DHT22;38449;52.696;6.186;2023-06-26T10:49:28;24.00;99.90
52543;DHT22;38449;52.696;6.186;2023-06-26T10:51:55;23.80;99.90
52543;DHT22;38449;52.696;6.186;2023-06-26T10:54:29;23.80;99.70
52543;DHT22;38449;52.696;6.186;2023-06-26T10:56:56;24.00;99.60
52543;DHT22;38449;52.696;6.186;2023-06-26T10:59:25;23.90;99.70
52543;DHT22;38449;52.696;6.186;2023-06-26T11:01:59;23.80;99.00
52543;DHT22;38449;52.696;6.186;2023-06-26T11:07:25;24.10;97.50
52543;DHT22;38449;52.696;6.186;2023-06-26T11:10:02;24.20;97.80
52543;DHT22;38449;52.696;6.186;2023-06-26T11:12:39;24.40;97.50
52543;DHT22;38449;52.696;6.186;2023-06-26T11:15:15;24.10;97.20
52543;DHT22;38449;52.696;6.186;2023-06-26T11:17:43;24.20;98.20
52543;DHT22;38449;52.696;6.186;2023-06-26T11:20:14;23.90;98.30
52543;DHT22;38449;52.696;6.186;2023-06-26T11:22:41;24.10;98.40
52543;DHT22;38449;52.696;6.186;2023-06-26T11:25:09;24.00;98.90
52543;DHT22;38449;52.696;6.186;2023-06-26T11:27:41;23.90;98.60
52543;DHT22;38449;52.696;6.186;2023-06-26T11:30:10;23.70;97.90
52543;DHT22;38449;52.696;6.186;2023-06-26T11:32:38;23.70;98.20
52543;DHT22;38449;52.696;6.186;2023-06-26T11:35:05;23.80;98.40
52543;DHT22;38449;52.696;6.186;2023-06-26T11:37:32;24.10;98.00
52543;DHT22;38449;52.696;6.186;2023-06-26T11:39:58;24.10;97.00
52543;DHT22;38449;52.696;6.186;2023-06-26T11:42:24;24.50;97.30
52543;DHT22;38449;52.696;6.186;2023-06-26T11:44:51;24.60;97.10
52543;DHT22;38449;52.696;6.186;2023-06-26T11:47:20;24.70;96.70
52543;DHT22;38449;52.696;6.186;2023-06-26T11:49:47;24.80;96.50
52543;DHT22;38449;52.696;6.186;2023-06-26T11:52:15;24.70;96.40
52543;DHT22;38449;52.696;6.186;2023-06-26T11:54:42;24.70;96.60
52543;DHT22;38449;52.696;6.186;2023-06-26T11:57:14;24.30;96.50
52543;DHT22;38449;52.696;6.186;2023-06-26T11:59:41;24.20;96.90
52543;DHT22;38449;52.696;6.186;2023-06-26T12:02:13;24.50;97.50
52543;DHT22;38449;52.696;6.186;2023-06-26T12:04:42;24.60;97.20
52543;DHT22;38449;52.696;6.186;2023-06-26T12:07:09;24.20;97.00
52543;DHT22;38449;52.696;6.186;2023-06-26T12:09:46;24.20;97.60
52543;DHT22;38449;52.696;6.186;2023-06-26T12:12:16;24.10;97.10
52543;DHT22;38449;52.696;6.186;2023-06-26T12:14:43;24.10;97.30
52543;DHT22;38449;52.696;6.186;2023-06-26T12:17:11;23.90;97.60
52543;DHT22;38449;52.696;6.186;2023-06-26T12:19:45;23.70;97.30
52543;DHT22;38449;52.696;6.186;2023-06-26T12:22:14;23.30;97.40
52543;DHT22;38449;52.696;6.186;2023-06-26T12:24:40;23.50;97.80
52543;DHT22;38449;52.696;6.186;2023-06-26T12:27:10;23.50;97.70
52543;DHT22;38449;52.696;6.186;2023-06-26T12:29:39;23.70;97.70
52543;DHT22;38449;52.696;6.186;2023-06-26T12:32:09;23.40;97.50
52543;DHT22;38449;52.696;6.186;2023-06-26T12:34:38;23.20;97.80
52543;DHT22;38449;52.696;6.186;2023-06-26T12:37:07;23.30;97.90
52543;DHT22;38449;52.696;6.186;2023-06-26T12:39:54;23.50;98.00
52543;DHT22;38449;52.696;6.186;2023-06-26T12:42:26;23.70;97.00
52543;DHT22;38449;52.696;6.186;2023-06-26T12:44:53;23.60;97.10
52543;DHT22;38449;52.696;6.186;2023-06-26T12:47:25;23.60;97.40
52543;DHT22;38449;52.696;6.186;2023-06-26T12:49:53;23.80;97.30
52543;DHT22;38449;52.696;6.186;2023-06-26T12:52:20;23.90;97.00
52543;DHT22;38449;52.696;6.186;2023-06-26T12:54:47;23.60;96.50
52543;DHT22;38449;52.696;6.186;2023-06-26T12:57:17;23.60;96.30
52543;DHT22;38449;52.696;6.186;2023-06-26T12:59:43;23.70;96.50
52543;DHT22;38449;52.696;6.186;2023-06-26T13:02:10;23.60;95.80
52543;DHT22;38449;52.696;6.186;2023-06-26T13:04:39;23.60;96.20
52543;DHT22;38449;52.696;6.186;2023-06-26T13:07:06;23.70;97.10
52543;DHT22;38449;52.696;6.186;2023-06-26T13:09:34;23.90;97.10
52543;DHT22;38449;52.696;6.186;2023-06-26T13:12:01;23.90;96.50
52543;DHT22;38449;52.696;6.186;2023-06-26T13:14:30;23.70;95.90
52543;DHT22;38449;52.696;6.186;2023-06-26T13:16:56;23.80;96.40
52543;DHT22;38449;52.696;6.186;2023-06-26T13:19:23;23.80;97.60
52543;DHT22;38449;52.696;6.186;2023-06-26T13:21:49;23.60;98.50
52543;DHT22;38449;52.696;6.186;2023-06-26T13:24:15;23.40;98.70
52543;DHT22;38449;52.696;6.186;2023-06-26T13:26:42;23.00;99.40
52543;DHT22;38449;52.696;6.186;2023-06-26T13:29:08;23.00;99.30
52543;DHT22;38449;52.696;6.186;2023-06-26T13:31:35;23.20;99.10
52543;DHT22;38449;52.696;6.186;2023-06-26T13:34:02;23.40;98.70
52543;DHT22;38449;52.696;6.186;2023-06-26T13:36:30;23.30;98.20
52543;DHT22;38449;52.696;6.186;2023-06-26T13:38:56;23.50;97.30
52543;DHT22;38449;52.696;6.186;2023-06-26T13:41:23;23.30;97.60
52543;DHT22;38449;52.696;6.186;2023-06-26T13:43:49;23.20;97.90
52543;DHT22;38449;52.696;6.186;2023-06-26T13:46:19;23.20;98.30
52543;DHT22;38449;52.696;6.186;2023-06-26T13:48:45;23.10;98.60
52543;DHT22;38449;52.696;6.186;2023-06-26T13:51:12;23.20;98.90
52543;DHT22;38449;52.696;6.186;2023-06-26T13:53:38;23.20;98.60
52543;DHT22;38449;52.696;6.186;2023-06-26T13:56:05;22.80;96.80
52543;DHT22;38449;52.696;6.186;2023-06-26T13:58:31;22.80;97.20
52543;DHT22;38449;52.696;6.186;2023-06-26T14:00:59;23.00;97.90
52543;DHT22;38449;52.696;6.186;2023-06-26T14:03:26;23.00;97.90
52543;DHT22;38449;52.696;6.186;2023-06-26T14:05:56;22.80;98.70
52543;DHT22;38449;52.696;6.186;2023-06-26T14:08:22;22.90;98.40
52543;DHT22;38449;52.696;6.186;2023-06-26T14:10:48;22.90;98.30
52543;DHT22;38449;52.696;6.186;2023-06-26T14:13:14;22.90;98.40
52543;DHT22;38449;52.696;6.186;2023-06-26T14:15:42;22.80;98.10
52543;DHT22;38449;52.696;6.186;2023-06-26T14:18:08;23.00;98.40
52543;DHT22;38449;52.696;6.186;2023-06-26T14:20:34;23.10;97.80
52543;DHT22;38449;52.696;6.186;2023-06-26T14:23:02;23.20;96.90
52543;DHT22;38449;52.696;6.186;2023-06-26T14:25:28;23.20;96.00
52543;DHT22;38449;52.696;6.186;2023-06-26T14:27:58;23.30;95.70
52543;DHT22;38449;52.696;6.186;2023-06-26T14:30:25;23.30;96.20
52543;DHT22;38449;52.696;6.186;2023-06-26T14:32:51;23.40;96.20
52543;DHT22;38449;52.696;6.186;2023-06-26T14:35:17;23.10;96.70
52543;DHT22;38449;52.696;6.186;2023-06-26T14:37:44;23.00;96.10
52543;DHT22;38449;52.696;6.186;2023-06-26T14:40:10;23.00;95.50
52543;DHT22;38449;52.696;6.186;2023-06-26T14:42:37;23.00;96.00
52543;DHT22;38449;52.696;6.186;2023-06-26T14:45:03;23.30;96.20
52543;DHT22;38449;52.696;6.186;2023-06-26T14:47:30;23.30;95.80
52543;DHT22;38449;52.696;6.186;2023-06-26T14:49:56;23.40;95.60
52543;DHT22;38449;52.696;6.186;2023-06-26T14:52:22;23.30;95.70
52543;DHT22;38449;52.696;6.186;2023-06-26T14:54:48;23.10;96.40
52543;DHT22;38449;52.696;6.186;2023-06-26T14:57:15;23.30;96.70
52543;DHT22;38449;52.696;6.186;2023-06-26T14:59:41;23.10;96.10
52543;DHT22;38449;52.696;6.186;2023-06-26T15:02:07;23.00;96.10
52543;DHT22;38449;52.696;6.186;2023-06-26T15:04:33;23.10;96.60
52543;DHT22;38449;52.696;6.186;2023-06-26T15:06:59;23.20;96.20
52543;DHT22;38449;52.696;6.186;2023-06-26T15:09:26;23.00;96.60
52543;DHT22;38449;52.696;6.186;2023-06-26T15:11:52;22.80;96.80
52543;DHT22;38449;52.696;6.186;2023-06-26T15:14:18;22.90;96.80
52543;DHT22;38449;52.696;6.186;2023-06-26T15:16:44;22.70;96.70
52543;DHT22;38449;52.696;6.186;2023-06-26T15:19:11;22.80;96.60
52543;DHT22;38449;52.696;6.186;2023-06-26T15:21:37;22.80;95.90
52543;DHT22;38449;52.696;6.186;2023-06-26T15:24:03;23.00;96.20
52543;DHT22;38449;52.696;6.186;2023-06-26T15:26:30;22.90;96.00
52543;DHT22;38449;52.696;6.186;2023-06-26T15:28:56;22.80;96.50
52543;DHT22;38449;52.696;6.186;2023-06-26T15:31:22;22.90;96.60
52543;DHT22;38449;52.696;6.186;2023-06-26T15:33:48;23.00;96.90
52543;DHT22;38449;52.696;6.186;2023-06-26T15:36:14;22.90;95.60
52543;DHT22;38449;52.696;6.186;2023-06-26T15:38:41;22.90;95.80
52543;DHT22;38449;52.696;6.186;2023-06-26T15:41:07;23.00;96.00
52543;DHT22;38449;52.696;6.186;2023-06-26T15:43:34;22.70;95.70
52543;DHT22;38449;52.696;6.186;2023-06-26T15:46:00;22.60;96.30